Terminal Aerodrome Forecast
Issued by NWS

Home | Current Version | Previous Version | Text Only | Print | Product List | Glossary On
Versions: 1 2 3 4 5 6 7 8 9 10 11 12 13 14 15
000
FTUS41 KPBZ 272320
TAFHLG
TAF
KHLG 272320Z 2800/2824 22009KT P6SM SCT060
     FM280200 21004KT P6SM VCSH BKN040
     FM281000 30004KT P6SM SCT010 BKN025 BKN040
     FM281800 36006KT P6SM SCT040=

USA.gov is the U.S. government's official web portal to all federal, state and local government web resources and services.